sensor_id;sensor_type;location;lat;lon;timestamp;P1;durP1;ratioP1;P2;durP2;ratioP2
43311;SDS011;30041;48.300;16.352;2024-02-15T00:01:00;0.35;;;0.00;;
43311;SDS011;30041;48.300;16.352;2024-02-15T00:03:26;0.00;;;0.00;;
43311;SDS011;30041;48.300;16.352;2024-02-15T00:05:52;0.00;;;0.00;;
43311;SDS011;30041;48.300;16.352;2024-02-15T00:08:18;0.00;;;0.00;;
43311;SDS011;30041;48.300;16.352;2024-02-15T00:10:43;0.00;;;0.00;;
43311;SDS011;30041;48.300;16.352;2024-02-15T00:13:10;0.05;;;0.00;;
43311;SDS011;30041;48.300;16.352;2024-02-15T00:15:35;0.00;;;0.00;;
43311;SDS011;30041;48.300;16.352;2024-02-15T00:18:01;0.00;;;0.00;;
43311;SDS011;30041;48.300;16.352;2024-02-15T00:20:27;0.00;;;0.00;;
43311;SDS011;30041;48.300;16.352;2024-02-15T00:22:53;0.00;;;0.00;;
43311;SDS011;30041;48.300;16.352;2024-02-15T00:25:18;0.00;;;0.00;;
43311;SDS011;30041;48.300;16.352;2024-02-15T00:27:44;0.00;;;0.00;;
43311;SDS011;30041;48.300;16.352;2024-02-15T00:30:10;0.00;;;0.00;;
43311;SDS011;30041;48.300;16.352;2024-02-15T00:32:36;0.00;;;0.00;;
43311;SDS011;30041;48.300;16.352;2024-02-15T00:35:02;0.00;;;0.00;;
43311;SDS011;30041;48.300;16.352;2024-02-15T00:37:29;0.00;;;0.00;;
43311;SDS011;30041;48.300;16.352;2024-02-15T00:39:57;0.00;;;0.00;;
43311;SDS011;30041;48.300;16.352;2024-02-15T00:42:23;0.00;;;0.00;;
43311;SDS011;30041;48.300;16.352;2024-02-15T00:44:49;0.00;;;0.00;;
43311;SDS011;30041;48.300;16.352;2024-02-15T00:47:15;0.00;;;0.00;;
43311;SDS011;30041;48.300;16.352;2024-02-15T00:49:40;0.00;;;0.00;;
43311;SDS011;30041;48.300;16.352;2024-02-15T00:52:06;0.00;;;0.00;;
43311;SDS011;30041;48.300;16.352;2024-02-15T00:54:32;0.00;;;0.00;;
43311;SDS011;30041;48.300;16.352;2024-02-15T00:56:57;0.00;;;0.00;;
43311;SDS011;30041;48.300;16.352;2024-02-15T00:59:23;0.00;;;0.00;;
43311;SDS011;30041;48.300;16.352;2024-02-15T01:01:49;0.00;;;0.00;;
43311;SDS011;30041;48.300;16.352;2024-02-15T01:04:14;0.00;;;0.00;;
43311;SDS011;30041;48.300;16.352;2024-02-15T01:06:40;0.00;;;0.00;;
43311;SDS011;30041;48.300;16.352;2024-02-15T01:09:06;0.00;;;0.00;;
43311;SDS011;30041;48.300;16.352;2024-02-15T01:11:32;0.00;;;0.00;;
43311;SDS011;30041;48.300;16.352;2024-02-15T01:13:58;0.00;;;0.00;;
43311;SDS011;30041;48.300;16.352;2024-02-15T01:16:23;0.00;;;0.00;;
43311;SDS011;30041;48.300;16.352;2024-02-15T01:18:50;0.00;;;0.00;;
43311;SDS011;30041;48.300;16.352;2024-02-15T01:21:15;0.00;;;0.00;;
43311;SDS011;30041;48.300;16.352;2024-02-15T01:23:42;0.00;;;0.00;;
43311;SDS011;30041;48.300;16.352;2024-02-15T01:26:08;0.00;;;0.00;;
43311;SDS011;30041;48.300;16.352;2024-02-15T01:28:33;0.03;;;0.00;;
43311;SDS011;30041;48.300;16.352;2024-02-15T01:30:59;0.00;;;0.00;;
43311;SDS011;30041;48.300;16.352;2024-02-15T01:33:25;0.00;;;0.00;;
43311;SDS011;30041;48.300;16.352;2024-02-15T01:35:51;0.00;;;0.00;;
43311;SDS011;30041;48.300;16.352;2024-02-15T01:38:17;0.00;;;0.00;;
43311;SDS011;30041;48.300;16.352;2024-02-15T01:40:42;0.00;;;0.00;;
43311;SDS011;30041;48.300;16.352;2024-02-15T01:43:08;0.00;;;0.00;;
43311;SDS011;30041;48.300;16.352;2024-02-15T01:45:34;0.00;;;0.00;;
43311;SDS011;30041;48.300;16.352;2024-02-15T01:48:01;0.00;;;0.00;;
43311;SDS011;30041;48.300;16.352;2024-02-15T01:50:27;0.00;;;0.00;;
43311;SDS011;30041;48.300;16.352;2024-02-15T01:52:52;0.00;;;0.00;;
43311;SDS011;30041;48.300;16.352;2024-02-15T01:55:20;0.00;;;0.00;;
43311;SDS011;30041;48.300;16.352;2024-02-15T01:57:47;0.00;;;0.00;;
43311;SDS011;30041;48.300;16.352;2024-02-15T02:00:15;0.00;;;0.00;;
43311;SDS011;30041;48.300;16.352;2024-02-15T02:02:44;0.00;;;0.00;;
43311;SDS011;30041;48.300;16.352;2024-02-15T02:05:11;0.00;;;0.00;;
43311;SDS011;30041;48.300;16.352;2024-02-15T02:07:37;0.00;;;0.00;;
43311;SDS011;30041;48.300;16.352;2024-02-15T02:10:03;0.00;;;0.00;;
43311;SDS011;30041;48.300;16.352;2024-02-15T02:12:30;0.00;;;0.00;;
43311;SDS011;30041;48.300;16.352;2024-02-15T02:14:56;0.00;;;0.00;;
43311;SDS011;30041;48.300;16.352;2024-02-15T02:17:22;0.00;;;0.00;;
43311;SDS011;30041;48.300;16.352;2024-02-15T02:19:48;0.00;;;0.00;;
43311;SDS011;30041;48.300;16.352;2024-02-15T02:22:14;0.00;;;0.00;;
43311;SDS011;30041;48.300;16.352;2024-02-15T02:24:41;0.00;;;0.00;;
43311;SDS011;30041;48.300;16.352;2024-02-15T02:27:19;0.00;;;0.00;;
43311;SDS011;30041;48.300;16.352;2024-02-15T02:29:46;0.00;;;0.00;;
43311;SDS011;30041;48.300;16.352;2024-02-15T02:32:12;0.00;;;0.00;;
43311;SDS011;30041;48.300;16.352;2024-02-15T02:34:38;0.00;;;0.00;;
43311;SDS011;30041;48.300;16.352;2024-02-15T02:37:04;0.00;;;0.00;;
43311;SDS011;30041;48.300;16.352;2024-02-15T02:39:29;0.00;;;0.00;;
43311;SDS011;30041;48.300;16.352;2024-02-15T02:41:55;0.00;;;0.00;;
43311;SDS011;30041;48.300;16.352;2024-02-15T02:44:21;0.00;;;0.00;;
43311;SDS011;30041;48.300;16.352;2024-02-15T02:46:46;0.00;;;0.00;;
43311;SDS011;30041;48.300;16.352;2024-02-15T02:49:12;0.00;;;0.00;;
43311;SDS011;30041;48.300;16.352;2024-02-15T02:51:38;0.00;;;0.00;;
43311;SDS011;30041;48.300;16.352;2024-02-15T02:54:03;0.00;;;0.00;;
43311;SDS011;30041;48.300;16.352;2024-02-15T02:56:29;0.00;;;0.00;;
43311;SDS011;30041;48.300;16.352;2024-02-15T02:58:57;0.00;;;0.00;;
43311;SDS011;30041;48.300;16.352;2024-02-15T03:01:23;0.10;;;0.00;;
43311;SDS011;30041;48.300;16.352;2024-02-15T03:03:49;0.00;;;0.00;;
43311;SDS011;30041;48.300;16.352;2024-02-15T03:06:14;0.20;;;0.00;;
43311;SDS011;30041;48.300;16.352;2024-02-15T03:08:40;0.00;;;0.00;;
43311;SDS011;30041;48.300;16.352;2024-02-15T03:11:06;0.00;;;0.00;;
43311;SDS011;30041;48.300;16.352;2024-02-15T03:13:32;0.00;;;0.00;;
43311;SDS011;30041;48.300;16.352;2024-02-15T03:15:57;0.00;;;0.00;;
43311;SDS011;30041;48.300;16.352;2024-02-15T03:18:23;0.00;;;0.00;;
43311;SDS011;30041;48.300;16.352;2024-02-15T03:20:49;0.00;;;0.00;;
43311;SDS011;30041;48.300;16.352;2024-02-15T03:23:15;0.00;;;0.00;;
43311;SDS011;30041;48.300;16.352;2024-02-15T03:25:40;0.00;;;0.00;;
43311;SDS011;30041;48.300;16.352;2024-02-15T03:28:06;0.00;;;0.00;;
43311;SDS011;30041;48.300;16.352;2024-02-15T03:30:32;0.00;;;0.00;;
43311;SDS011;30041;48.300;16.352;2024-02-15T03:32:58;0.00;;;0.00;;
43311;SDS011;30041;48.300;16.352;2024-02-15T03:35:24;0.00;;;0.00;;
43311;SDS011;30041;48.300;16.352;2024-02-15T03:37:51;0.00;;;0.00;;
43311;SDS011;30041;48.300;16.352;2024-02-15T03:40:18;0.00;;;0.00;;
43311;SDS011;30041;48.300;16.352;2024-02-15T03:42:44;0.00;;;0.00;;
43311;SDS011;30041;48.300;16.352;2024-02-15T03:45:11;0.00;;;0.00;;
43311;SDS011;30041;48.300;16.352;2024-02-15T03:47:36;0.03;;;0.00;;
43311;SDS011;30041;48.300;16.352;2024-02-15T03:50:02;0.00;;;0.00;;
43311;SDS011;30041;48.300;16.352;2024-02-15T03:52:29;0.00;;;0.00;;
43311;SDS011;30041;48.300;16.352;2024-02-15T03:54:56;0.00;;;0.00;;
43311;SDS011;30041;48.300;16.352;2024-02-15T03:57:22;0.10;;;0.00;;
43311;SDS011;30041;48.300;16.352;2024-02-15T03:59:48;0.00;;;0.00;;
43311;SDS011;30041;48.300;16.352;2024-02-15T04:02:13;0.00;;;0.00;;
43311;SDS011;30041;48.300;16.352;2024-02-15T04:04:39;0.00;;;0.00;;
43311;SDS011;30041;48.300;16.352;2024-02-15T04:07:05;0.00;;;0.00;;
43311;SDS011;30041;48.300;16.352;2024-02-15T04:09:31;0.00;;;0.00;;
43311;SDS011;30041;48.300;16.352;2024-02-15T04:11:56;0.00;;;0.00;;
43311;SDS011;30041;48.300;16.352;2024-02-15T04:14:22;0.00;;;0.00;;
43311;SDS011;30041;48.300;16.352;2024-02-15T04:16:48;0.00;;;0.00;;
43311;SDS011;30041;48.300;16.352;2024-02-15T04:19:13;0.00;;;0.00;;
43311;SDS011;30041;48.300;16.352;2024-02-15T04:21:40;0.00;;;0.00;;
43311;SDS011;30041;48.300;16.352;2024-02-15T04:24:06;0.00;;;0.00;;
43311;SDS011;30041;48.300;16.352;2024-02-15T04:26:32;0.00;;;0.00;;
43311;SDS011;30041;48.300;16.352;2024-02-15T04:28:58;0.00;;;0.00;;
43311;SDS011;30041;48.300;16.352;2024-02-15T04:31:24;0.00;;;0.00;;
43311;SDS011;30041;48.300;16.352;2024-02-15T04:33:50;0.00;;;0.00;;
43311;SDS011;30041;48.300;16.352;2024-02-15T04:36:16;0.05;;;0.00;;
43311;SDS011;30041;48.300;16.352;2024-02-15T04:38:41;0.00;;;0.00;;
43311;SDS011;30041;48.300;16.352;2024-02-15T04:41:07;0.00;;;0.00;;
43311;SDS011;30041;48.300;16.352;2024-02-15T04:43:33;0.00;;;0.00;;
43311;SDS011;30041;48.300;16.352;2024-02-15T04:45:59;0.00;;;0.00;;
43311;SDS011;30041;48.300;16.352;2024-02-15T04:48:24;0.00;;;0.00;;
43311;SDS011;30041;48.300;16.352;2024-02-15T04:50:50;0.00;;;0.00;;
43311;SDS011;30041;48.300;16.352;2024-02-15T04:53:16;0.00;;;0.00;;
43311;SDS011;30041;48.300;16.352;2024-02-15T04:55:41;0.00;;;0.00;;
43311;SDS011;30041;48.300;16.352;2024-02-15T04:58:07;0.03;;;0.00;;
43311;SDS011;30041;48.300;16.352;2024-02-15T05:00:33;0.00;;;0.00;;
43311;SDS011;30041;48.300;16.352;2024-02-15T05:02:59;0.00;;;0.00;;
43311;SDS011;30041;48.300;16.352;2024-02-15T05:05:24;0.00;;;0.00;;
43311;SDS011;30041;48.300;16.352;2024-02-15T05:07:50;0.00;;;0.00;;
43311;SDS011;30041;48.300;16.352;2024-02-15T05:10:16;0.00;;;0.00;;
43311;SDS011;30041;48.300;16.352;2024-02-15T05:12:42;0.00;;;0.00;;
43311;SDS011;30041;48.300;16.352;2024-02-15T05:15:08;0.00;;;0.00;;
43311;SDS011;30041;48.300;16.352;2024-02-15T05:17:34;0.00;;;0.00;;
43311;SDS011;30041;48.300;16.352;2024-02-15T05:20:00;0.00;;;0.00;;
43311;SDS011;30041;48.300;16.352;2024-02-15T05:22:26;0.00;;;0.00;;
43311;SDS011;30041;48.300;16.352;2024-02-15T05:24:53;0.00;;;0.00;;
43311;SDS011;30041;48.300;16.352;2024-02-15T05:27:19;0.00;;;0.00;;
43311;SDS011;30041;48.300;16.352;2024-02-15T05:29:45;0.00;;;0.00;;
43311;SDS011;30041;48.300;16.352;2024-02-15T05:32:11;0.00;;;0.00;;
43311;SDS011;30041;48.300;16.352;2024-02-15T05:34:37;0.00;;;0.00;;
43311;SDS011;30041;48.300;16.352;2024-02-15T05:37:03;0.00;;;0.00;;
43311;SDS011;30041;48.300;16.352;2024-02-15T05:39:28;0.00;;;0.00;;
43311;SDS011;30041;48.300;16.352;2024-02-15T05:41:54;0.00;;;0.00;;
43311;SDS011;30041;48.300;16.352;2024-02-15T05:44:20;0.00;;;0.00;;
43311;SDS011;30041;48.300;16.352;2024-02-15T05:46:48;0.00;;;0.00;;
43311;SDS011;30041;48.300;16.352;2024-02-15T05:49:14;0.00;;;0.00;;
43311;SDS011;30041;48.300;16.352;2024-02-15T05:51:39;0.00;;;0.00;;
43311;SDS011;30041;48.300;16.352;2024-02-15T05:54:05;0.00;;;0.00;;
43311;SDS011;30041;48.300;16.352;2024-02-15T05:56:31;0.00;;;0.00;;
43311;SDS011;30041;48.300;16.352;2024-02-15T05:58:57;0.00;;;0.00;;
43311;SDS011;30041;48.300;16.352;2024-02-15T06:01:22;0.00;;;0.00;;
43311;SDS011;30041;48.300;16.352;2024-02-15T06:03:48;0.00;;;0.00;;
43311;SDS011;30041;48.300;16.352;2024-02-15T06:06:14;0.00;;;0.00;;
43311;SDS011;30041;48.300;16.352;2024-02-15T06:08:40;0.00;;;0.00;;
43311;SDS011;30041;48.300;16.352;2024-02-15T06:11:05;0.00;;;0.00;;
43311;SDS011;30041;48.300;16.352;2024-02-15T06:13:31;0.00;;;0.00;;
43311;SDS011;30041;48.300;16.352;2024-02-15T06:15:57;0.00;;;0.00;;
43311;SDS011;30041;48.300;16.352;2024-02-15T06:18:23;0.00;;;0.00;;
43311;SDS011;30041;48.300;16.352;2024-02-15T06:20:51;0.00;;;0.00;;
43311;SDS011;30041;48.300;16.352;2024-02-15T06:23:17;0.00;;;0.00;;
43311;SDS011;30041;48.300;16.352;2024-02-15T06:25:43;0.00;;;0.00;;
43311;SDS011;30041;48.300;16.352;2024-02-15T06:28:10;0.00;;;0.00;;
43311;SDS011;30041;48.300;16.352;2024-02-15T06:30:36;0.10;;;0.00;;
43311;SDS011;30041;48.300;16.352;2024-02-15T06:33:02;0.00;;;0.00;;
43311;SDS011;30041;48.300;16.352;2024-02-15T06:35:27;0.00;;;0.00;;
43311;SDS011;30041;48.300;16.352;2024-02-15T06:37:53;0.00;;;0.00;;
43311;SDS011;30041;48.300;16.352;2024-02-15T06:40:19;0.00;;;0.00;;
43311;SDS011;30041;48.300;16.352;2024-02-15T06:42:44;0.00;;;0.00;;
43311;SDS011;30041;48.300;16.352;2024-02-15T06:45:10;0.00;;;0.00;;
43311;SDS011;30041;48.300;16.352;2024-02-15T06:47:36;0.00;;;0.00;;
43311;SDS011;30041;48.300;16.352;2024-02-15T06:50:01;6.88;;;0.30;;
43311;SDS011;30041;48.300;16.352;2024-02-15T06:52:27;0.10;;;0.08;;
43311;SDS011;30041;48.300;16.352;2024-02-15T06:54:53;1.38;;;0.20;;
43311;SDS011;30041;48.300;16.352;2024-02-15T06:57:19;1.95;;;0.30;;
43311;SDS011;30041;48.300;16.352;2024-02-15T06:59:46;4.13;;;0.30;;
43311;SDS011;30041;48.300;16.352;2024-02-15T07:02:12;1.75;;;0.30;;
43311;SDS011;30041;48.300;16.352;2024-02-15T07:04:37;1.90;;;0.40;;
43311;SDS011;30041;48.300;16.352;2024-02-15T07:07:03;1.98;;;0.28;;
43311;SDS011;30041;48.300;16.352;2024-02-15T07:09:29;2.70;;;0.65;;
43311;SDS011;30041;48.300;16.352;2024-02-15T07:11:55;3.33;;;1.10;;
43311;SDS011;30041;48.300;16.352;2024-02-15T07:14:22;1.35;;;0.52;;
43311;SDS011;30041;48.300;16.352;2024-02-15T07:16:48;2.47;;;0.40;;
43311;SDS011;30041;48.300;16.352;2024-02-15T07:19:14;3.05;;;0.50;;
43311;SDS011;30041;48.300;16.352;2024-02-15T07:21:41;1.40;;;0.40;;
43311;SDS011;30041;48.300;16.352;2024-02-15T07:24:07;4.72;;;0.40;;
43311;SDS011;30041;48.300;16.352;2024-02-15T07:26:33;2.60;;;0.70;;
43311;SDS011;30041;48.300;16.352;2024-02-15T07:28:59;4.43;;;0.80;;
43311;SDS011;30041;48.300;16.352;2024-02-15T07:31:27;5.60;;;1.70;;
43311;SDS011;30041;48.300;16.352;2024-02-15T07:33:53;5.88;;;1.10;;
43311;SDS011;30041;48.300;16.352;2024-02-15T07:36:22;4.13;;;1.17;;
43311;SDS011;30041;48.300;16.352;2024-02-15T07:38:51;4.07;;;1.30;;
43311;SDS011;30041;48.300;16.352;2024-02-15T07:41:18;5.50;;;1.45;;
43311;SDS011;30041;48.300;16.352;2024-02-15T07:43:44;7.32;;;1.42;;
43311;SDS011;30041;48.300;16.352;2024-02-15T07:46:14;11.07;;;3.50;;
43311;SDS011;30041;48.300;16.352;2024-02-15T07:48:40;6.68;;;2.83;;
43311;SDS011;30041;48.300;16.352;2024-02-15T07:51:05;8.68;;;2.70;;
43311;SDS011;30041;48.300;16.352;2024-02-15T07:53:31;7.35;;;2.13;;
43311;SDS011;30041;48.300;16.352;2024-02-15T07:55:57;10.93;;;2.50;;
43311;SDS011;30041;48.300;16.352;2024-02-15T07:58:23;5.25;;;2.22;;
43311;SDS011;30041;48.300;16.352;2024-02-15T08:00:48;6.97;;;2.38;;
43311;SDS011;30041;48.300;16.352;2024-02-15T08:03:14;4.82;;;1.80;;
43311;SDS011;30041;48.300;16.352;2024-02-15T08:05:40;6.03;;;1.90;;
43311;SDS011;30041;48.300;16.352;2024-02-15T08:08:05;5.65;;;1.88;;
43311;SDS011;30041;48.300;16.352;2024-02-15T08:10:31;6.05;;;2.22;;
43311;SDS011;30041;48.300;16.352;2024-02-15T08:12:57;9.43;;;2.40;;
43311;SDS011;30041;48.300;16.352;2024-02-15T08:15:22;11.05;;;2.17;;
43311;SDS011;30041;48.300;16.352;2024-02-15T08:17:48;6.40;;;2.28;;
43311;SDS011;30041;48.300;16.352;2024-02-15T08:20:14;4.25;;;2.13;;
43311;SDS011;30041;48.300;16.352;2024-02-15T08:22:41;6.53;;;2.13;;
43311;SDS011;30041;48.300;16.352;2024-02-15T08:25:08;5.53;;;1.95;;
43311;SDS011;30041;48.300;16.352;2024-02-15T08:27:35;8.05;;;1.80;;
43311;SDS011;30041;48.300;16.352;2024-02-15T08:30:01;6.07;;;1.98;;
43311;SDS011;30041;48.300;16.352;2024-02-15T08:32:27;6.78;;;2.28;;
43311;SDS011;30041;48.300;16.352;2024-02-15T08:34:53;4.60;;;1.67;;
43311;SDS011;30041;48.300;16.352;2024-02-15T08:37:18;4.60;;;1.80;;
43311;SDS011;30041;48.300;16.352;2024-02-15T08:39:44;8.57;;;1.95;;
43311;SDS011;30041;48.300;16.352;2024-02-15T08:42:10;5.57;;;2.10;;
43311;SDS011;30041;48.300;16.352;2024-02-15T08:44:36;4.82;;;2.00;;
43311;SDS011;30041;48.300;16.352;2024-02-15T08:47:02;3.67;;;1.73;;
43311;SDS011;30041;48.300;16.352;2024-02-15T08:49:28;3.72;;;1.80;;
43311;SDS011;30041;48.300;16.352;2024-02-15T08:51:53;6.45;;;2.00;;
43311;SDS011;30041;48.300;16.352;2024-02-15T08:54:19;3.97;;;1.83;;
43311;SDS011;30041;48.300;16.352;2024-02-15T08:56:45;5.30;;;1.92;;
43311;SDS011;30041;48.300;16.352;2024-02-15T08:59:10;6.53;;;1.90;;
43311;SDS011;30041;48.300;16.352;2024-02-15T09:01:36;7.22;;;1.90;;
43311;SDS011;30041;48.300;16.352;2024-02-15T09:04:02;5.60;;;1.88;;
43311;SDS011;30041;48.300;16.352;2024-02-15T09:06:28;4.82;;;1.70;;
43311;SDS011;30041;48.300;16.352;2024-02-15T09:08:54;4.50;;;1.80;;
43311;SDS011;30041;48.300;16.352;2024-02-15T09:11:20;3.97;;;1.90;;
43311;SDS011;30041;48.300;16.352;2024-02-15T09:13:48;5.18;;;1.88;;
43311;SDS011;30041;48.300;16.352;2024-02-15T09:16:14;3.33;;;1.73;;
43311;SDS011;30041;48.300;16.352;2024-02-15T09:18:39;3.63;;;1.83;;
43311;SDS011;30041;48.300;16.352;2024-02-15T09:21:05;5.40;;;1.60;;
43311;SDS011;30041;48.300;16.352;2024-02-15T09:23:30;3.45;;;1.75;;
43311;SDS011;30041;48.300;16.352;2024-02-15T09:25:56;4.72;;;1.70;;
43311;SDS011;30041;48.300;16.352;2024-02-15T09:28:22;3.33;;;1.42;;
43311;SDS011;30041;48.300;16.352;2024-02-15T09:30:48;3.03;;;1.60;;
43311;SDS011;30041;48.300;16.352;2024-02-15T09:33:14;3.55;;;1.60;;
43311;SDS011;30041;48.300;16.352;2024-02-15T09:35:40;4.93;;;1.58;;
43311;SDS011;30041;48.300;16.352;2024-02-15T09:38:06;5.32;;;1.67;;
43311;SDS011;30041;48.300;16.352;2024-02-15T09:40:34;3.47;;;1.77;;
43311;SDS011;30041;48.300;16.352;2024-02-15T09:43:03;2.90;;;1.55;;
43311;SDS011;30041;48.300;16.352;2024-02-15T09:45:29;3.47;;;1.60;;
43311;SDS011;30041;48.300;16.352;2024-02-15T09:47:54;3.42;;;1.77;;
43311;SDS011;30041;48.300;16.352;2024-02-15T09:50:25;2.65;;;1.48;;
43311;SDS011;30041;48.300;16.352;2024-02-15T09:52:56;20.23;;;3.67;;
43311;SDS011;30041;48.300;16.352;2024-02-15T09:55:22;11.23;;;2.40;;
43311;SDS011;30041;48.300;16.352;2024-02-15T09:57:50;7.43;;;2.17;;
43311;SDS011;30041;48.300;16.352;2024-02-15T10:00:16;9.38;;;2.45;;
43311;SDS011;30041;48.300;16.352;2024-02-15T10:02:43;8.05;;;2.20;;
43311;SDS011;30041;48.300;16.352;2024-02-15T10:05:10;8.57;;;1.77;;
43311;SDS011;30041;48.300;16.352;2024-02-15T10:07:43;9.93;;;1.83;;
43311;SDS011;30041;48.300;16.352;2024-02-15T10:12:43;3.90;;;1.70;;
43311;SDS011;30041;48.300;16.352;2024-02-15T10:15:09;4.85;;;1.95;;
43311;SDS011;30041;48.300;16.352;2024-02-15T10:17:34;7.57;;;2.08;;
43311;SDS011;30041;48.300;16.352;2024-02-15T10:20:04;3.92;;;1.75;;
43311;SDS011;30041;48.300;16.352;2024-02-15T10:22:31;4.38;;;2.05;;
43311;SDS011;30041;48.300;16.352;2024-02-15T10:25:12;4.65;;;1.70;;
43311;SDS011;30041;48.300;16.352;2024-02-15T10:27:39;3.63;;;1.73;;
43311;SDS011;30041;48.300;16.352;2024-02-15T10:30:14;6.07;;;1.98;;
43311;SDS011;30041;48.300;16.352;2024-02-15T10:32:40;3.90;;;1.67;;
43311;SDS011;30041;48.300;16.352;2024-02-15T10:35:06;4.65;;;2.05;;
43311;SDS011;30041;48.300;16.352;2024-02-15T10:37:32;4.18;;;1.50;;
43311;SDS011;30041;48.300;16.352;2024-02-15T10:40:05;4.40;;;1.67;;
43311;SDS011;30041;48.300;16.352;2024-02-15T10:42:31;4.15;;;1.80;;
43311;SDS011;30041;48.300;16.352;2024-02-15T10:44:57;4.18;;;1.67;;
43311;SDS011;30041;48.300;16.352;2024-02-15T10:47:24;3.95;;;1.85;;
43311;SDS011;30041;48.300;16.352;2024-02-15T10:49:50;6.20;;;2.17;;
43311;SDS011;30041;48.300;16.352;2024-02-15T10:52:16;3.42;;;1.60;;
43311;SDS011;30041;48.300;16.352;2024-02-15T10:55:02;2.92;;;1.40;;
43311;SDS011;30041;48.300;16.352;2024-02-15T10:57:29;3.45;;;1.65;;
43311;SDS011;30041;48.300;16.352;2024-02-15T10:59:57;3.75;;;1.75;;
43311;SDS011;30041;48.300;16.352;2024-02-15T11:02:30;5.45;;;1.65;;
43311;SDS011;30041;48.300;16.352;2024-02-15T11:05:02;7.20;;;1.75;;
43311;SDS011;30041;48.300;16.352;2024-02-15T11:07:31;3.55;;;1.50;;
43311;SDS011;30041;48.300;16.352;2024-02-15T11:09:57;5.78;;;1.50;;
43311;SDS011;30041;48.300;16.352;2024-02-15T11:12:24;3.58;;;1.70;;
43311;SDS011;30041;48.300;16.352;2024-02-15T11:14:50;4.20;;;1.67;;
43311;SDS011;30041;48.300;16.352;2024-02-15T11:20:00;4.30;;;2.03;;
43311;SDS011;30041;48.300;16.352;2024-02-15T11:22:28;5.75;;;1.60;;
43311;SDS011;30041;48.300;16.352;2024-02-15T11:24:54;3.80;;;1.80;;
43311;SDS011;30041;48.300;16.352;2024-02-15T11:27:26;5.13;;;1.63;;
43311;SDS011;30041;48.300;16.352;2024-02-15T11:29:54;3.30;;;1.73;;
43311;SDS011;30041;48.300;16.352;2024-02-15T11:32:37;2.45;;;1.60;;
43311;SDS011;30041;48.300;16.352;2024-02-15T11:35:07;3.23;;;1.30;;
43311;SDS011;30041;48.300;16.352;2024-02-15T11:38:09;3.60;;;1.50;;
43311;SDS011;30041;48.300;16.352;2024-02-15T11:40:28;3.53;;;1.20;;
43311;SDS011;30041;48.300;16.352;2024-02-15T11:46:05;4.70;;;1.55;;
43311;SDS011;30041;48.300;16.352;2024-02-15T11:48:35;2.28;;;1.50;;
43311;SDS011;30041;48.300;16.352;2024-02-15T11:51:01;2.85;;;1.30;;
43311;SDS011;30041;48.300;16.352;2024-02-15T11:53:27;2.85;;;1.27;;
43311;SDS011;30041;48.300;16.352;2024-02-15T11:55:53;2.42;;;1.40;;
43311;SDS011;30041;48.300;16.352;2024-02-15T11:58:25;3.83;;;1.60;;
43311;SDS011;30041;48.300;16.352;2024-02-15T12:00:51;2.58;;;1.42;;
43311;SDS011;30041;48.300;16.352;2024-02-15T12:03:17;4.47;;;1.50;;
43311;SDS011;30041;48.300;16.352;2024-02-15T12:05:43;3.53;;;1.50;;
43311;SDS011;30041;48.300;16.352;2024-02-15T12:08:10;3.85;;;1.63;;
43311;SDS011;30041;48.300;16.352;2024-02-15T12:10:36;2.83;;;1.48;;
43311;SDS011;30041;48.300;16.352;2024-02-15T12:13:01;4.30;;;1.60;;
43311;SDS011;30041;48.300;16.352;2024-02-15T12:15:28;2.90;;;1.40;;
43311;SDS011;30041;48.300;16.352;2024-02-15T12:17:53;2.80;;;1.35;;
43311;SDS011;30041;48.300;16.352;2024-02-15T12:20:19;6.15;;;1.67;;
43311;SDS011;30041;48.300;16.352;2024-02-15T12:22:48;4.38;;;1.30;;
43311;SDS011;30041;48.300;16.352;2024-02-15T12:25:14;3.88;;;1.50;;
43311;SDS011;30041;48.300;16.352;2024-02-15T12:27:46;3.03;;;1.48;;
43311;SDS011;30041;48.300;16.352;2024-02-15T12:30:20;1.90;;;1.10;;
43311;SDS011;30041;48.300;16.352;2024-02-15T12:32:49;2.85;;;1.58;;
43311;SDS011;30041;48.300;16.352;2024-02-15T12:35:17;3.55;;;1.30;;
43311;SDS011;30041;48.300;16.352;2024-02-15T12:37:46;5.90;;;2.08;;
43311;SDS011;30041;48.300;16.352;2024-02-15T12:40:19;7.50;;;1.70;;
43311;SDS011;30041;48.300;16.352;2024-02-15T12:42:45;10.32;;;2.05;;
43311;SDS011;30041;48.300;16.352;2024-02-15T12:45:18;5.13;;;1.60;;
43311;SDS011;30041;48.300;16.352;2024-02-15T12:47:50;3.15;;;1.33;;
43311;SDS011;30041;48.300;16.352;2024-02-15T12:50:17;5.22;;;1.70;;
43311;SDS011;30041;48.300;16.352;2024-02-15T12:52:45;10.73;;;1.65;;
43311;SDS011;30041;48.300;16.352;2024-02-15T12:57:42;5.68;;;1.52;;
43311;SDS011;30041;48.300;16.352;2024-02-15T13:00:08;6.72;;;1.40;;
43311;SDS011;30041;48.300;16.352;2024-02-15T13:02:35;5.13;;;1.30;;
43311;SDS011;30041;48.300;16.352;2024-02-15T13:05:01;2.70;;;1.40;;
43311;SDS011;30041;48.300;16.352;2024-02-15T13:07:26;3.42;;;1.48;;
43311;SDS011;30041;48.300;16.352;2024-02-15T13:09:52;6.65;;;1.50;;
43311;SDS011;30041;48.300;16.352;2024-02-15T13:12:18;4.93;;;1.60;;
43311;SDS011;30041;48.300;16.352;2024-02-15T13:14:44;3.13;;;1.25;;
43311;SDS011;30041;48.300;16.352;2024-02-15T13:17:10;3.47;;;1.30;;
43311;SDS011;30041;48.300;16.352;2024-02-15T13:19:35;5.03;;;1.30;;
43311;SDS011;30041;48.300;16.352;2024-02-15T13:22:01;3.15;;;1.13;;
43311;SDS011;30041;48.300;16.352;2024-02-15T13:24:27;3.35;;;1.50;;
43311;SDS011;30041;48.300;16.352;2024-02-15T13:26:53;5.13;;;1.45;;
43311;SDS011;30041;48.300;16.352;2024-02-15T13:29:18;11.18;;;4.30;;
43311;SDS011;30041;48.300;16.352;2024-02-15T13:31:44;7.60;;;4.43;;
43311;SDS011;30041;48.300;16.352;2024-02-15T13:34:10;7.22;;;4.00;;
43311;SDS011;30041;48.300;16.352;2024-02-15T13:36:35;6.38;;;2.90;;
43311;SDS011;30041;48.300;16.352;2024-02-15T13:39:01;6.30;;;2.50;;
43311;SDS011;30041;48.300;16.352;2024-02-15T13:41:27;7.15;;;2.22;;
43311;SDS011;30041;48.300;16.352;2024-02-15T13:43:53;5.03;;;2.30;;
43311;SDS011;30041;48.300;16.352;2024-02-15T13:46:18;6.95;;;2.33;;
43311;SDS011;30041;48.300;16.352;2024-02-15T13:48:45;6.35;;;2.33;;
43311;SDS011;30041;48.300;16.352;2024-02-15T13:51:11;3.67;;;2.00;;
43311;SDS011;30041;48.300;16.352;2024-02-15T13:53:38;4.88;;;2.50;;
43311;SDS011;30041;48.300;16.352;2024-02-15T13:56:03;5.60;;;2.50;;
43311;SDS011;30041;48.300;16.352;2024-02-15T13:58:29;7.22;;;2.70;;
43311;SDS011;30041;48.300;16.352;2024-02-15T14:00:55;7.13;;;2.58;;
43311;SDS011;30041;48.300;16.352;2024-02-15T14:03:21;7.30;;;2.40;;
43311;SDS011;30041;48.300;16.352;2024-02-15T14:05:46;11.25;;;2.78;;
43311;SDS011;30041;48.300;16.352;2024-02-15T14:08:12;5.95;;;2.72;;
43311;SDS011;30041;48.300;16.352;2024-02-15T14:10:38;5.88;;;2.53;;
43311;SDS011;30041;48.300;16.352;2024-02-15T14:13:04;6.30;;;2.70;;
43311;SDS011;30041;48.300;16.352;2024-02-15T14:15:33;8.57;;;2.50;;
43311;SDS011;30041;48.300;16.352;2024-02-15T14:18:00;6.47;;;2.70;;
43311;SDS011;30041;48.300;16.352;2024-02-15T14:20:30;5.07;;;2.40;;
43311;SDS011;30041;48.300;16.352;2024-02-15T14:22:57;3.67;;;2.20;;
43311;SDS011;30041;48.300;16.352;2024-02-15T14:25:23;4.88;;;2.20;;
43311;SDS011;30041;48.300;16.352;2024-02-15T14:27:49;6.20;;;2.60;;
43311;SDS011;30041;48.300;16.352;2024-02-15T14:30:40;5.75;;;2.60;;
43311;SDS011;30041;48.300;16.352;2024-02-15T14:33:08;6.72;;;3.20;;
43311;SDS011;30041;48.300;16.352;2024-02-15T14:35:34;5.82;;;3.53;;
43311;SDS011;30041;48.300;16.352;2024-02-15T14:38:05;7.80;;;4.40;;
43311;SDS011;30041;48.300;16.352;2024-02-15T14:40:33;9.48;;;5.07;;